createdAt,value
2023-05-09T00:01:36.106Z,12.15
2023-05-09T00:06:41.117Z,12.36
2023-05-09T00:11:45.155Z,12.67
2023-05-09T00:16:49.207Z,12.88
2023-05-09T00:21:53.048Z,13.01
2023-05-09T00:26:56.957Z,13.23
2023-05-09T00:32:01.195Z,13.46
2023-05-09T00:37:05.143Z,13.23
2023-05-09T00:42:09.769Z,13.48
2023-05-09T00:47:13.656Z,13.42
2023-05-09T00:52:18.508Z,13.93
2023-05-09T00:57:23.865Z,13.90
2023-05-09T01:02:28.471Z,13.94
2023-05-09T01:07:53.654Z,13.99
2023-05-09T01:13:16.781Z,14.20
2023-05-09T01:18:32.957Z,14.51
2023-05-09T01:23:45.959Z,14.71
2023-05-09T01:29:28.811Z,14.66
2023-05-09T01:34:36.144Z,14.51
2023-05-09T01:39:43.407Z,15.07
2023-05-09T01:44:48.638Z,15.30
2023-05-09T01:49:54.931Z,15.29
2023-05-09T01:55:02.363Z,15.47
2023-05-09T02:00:10.900Z,15.39
2023-05-09T02:05:19.364Z,15.29
2023-05-09T02:10:26.078Z,15.09
2023-05-09T02:15:31.265Z,14.94
2023-05-09T02:20:37.953Z,15.11
2023-05-09T02:25:42.356Z,15.25
2023-05-09T02:30:48.177Z,15.33
2023-05-09T02:35:53.496Z,14.75
2023-05-09T02:40:57.551Z,14.66
2023-05-09T02:46:03.615Z,15.04
2023-05-09T02:51:07.460Z,14.93
2023-05-09T02:56:11.699Z,15.20
2023-05-09T03:01:15.740Z,15.43
2023-05-09T03:06:19.849Z,15.77
2023-05-09T03:11:24.083Z,16.32
2023-05-09T03:16:28.636Z,16.57
2023-05-09T03:21:33.710Z,16.66
2023-05-09T03:26:38.368Z,16.39
2023-05-09T03:31:43.285Z,15.90
2023-05-09T03:36:47.464Z,15.64
2023-05-09T03:41:52.326Z,15.47
2023-05-09T03:46:56.384Z,15.53
2023-05-09T03:52:01.695Z,15.24
2023-05-09T03:57:08.253Z,15.02
2023-05-09T04:02:13.102Z,14.77
2023-05-09T04:07:17.127Z,14.37
2023-05-09T04:12:23.380Z,14.42
2023-05-09T04:17:27.884Z,14.25
2023-05-09T04:22:32.314Z,14.01
2023-05-09T04:27:36.837Z,13.93
2023-05-09T04:32:46.490Z,14.15
2023-05-09T04:37:52.673Z,14.43
2023-05-09T04:42:58.034Z,14.72
2023-05-09T04:48:05.141Z,14.48
2023-05-09T04:53:10.034Z,14.52
2023-05-09T04:58:14.239Z,14.44
2023-05-09T05:03:19.783Z,14.70
2023-05-09T05:08:23.735Z,14.64
2023-05-09T05:13:27.964Z,14.49
2023-05-09T05:18:35.515Z,14.58
2023-05-09T05:23:40.080Z,14.99
2023-05-09T05:28:44.633Z,15.69
2023-05-09T05:33:50.283Z,15.91
2023-05-09T05:38:54.476Z,16.15
2023-05-09T05:43:58.555Z,16.32
2023-05-09T05:49:02.617Z,16.45
2023-05-09T05:54:06.574Z,16.35
2023-05-09T05:59:13.528Z,16.41
2023-05-09T06:04:18.917Z,16.39
2023-05-09T06:09:22.860Z,16.53
2023-05-09T06:14:26.812Z,16.43
2023-05-09T06:19:30.898Z,16.35
2023-05-09T06:24:36.258Z,16.33
2023-05-09T06:29:41.086Z,16.34
2023-05-09T06:34:45.067Z,16.60
2023-05-09T06:39:49.267Z,16.43
2023-05-09T06:44:53.539Z,16.62
2023-05-09T06:49:57.356Z,16.89
2023-05-09T06:55:01.304Z,16.87
2023-05-09T07:00:07.157Z,17.04
2023-05-09T07:05:11.631Z,17.00
2023-05-09T07:10:15.700Z,16.47
2023-05-09T07:15:32.460Z,16.08
2023-05-09T07:20:43.631Z,15.94
2023-05-09T07:25:47.461Z,15.94
2023-05-09T07:30:51.901Z,15.84
2023-05-09T07:35:56.321Z,15.72
2023-05-09T07:41:00.350Z,15.95
2023-05-09T07:46:04.672Z,16.29
2023-05-09T07:51:08.729Z,16.85
2023-05-09T07:56:14.188Z,17.18
2023-05-09T08:01:18.006Z,16.86
2023-05-09T08:06:22.161Z,16.92
2023-05-09T08:11:27.135Z,17.11
2023-05-09T08:16:31.220Z,17.21
2023-05-09T08:21:35.051Z,16.73
2023-05-09T08:26:39.268Z,16.78
2023-05-09T08:31:43.304Z,16.56
2023-05-09T08:36:47.810Z,16.33
2023-05-09T08:41:52.919Z,16.12
2023-05-09T08:47:02.120Z,15.97
2023-05-09T08:52:06.479Z,16.04
2023-05-09T08:57:10.598Z,16.24
2023-05-09T09:02:15.936Z,16.30
2023-05-09T09:07:21.726Z,16.32
2023-05-09T09:12:25.803Z,16.21
2023-05-09T09:17:31.503Z,15.85
2023-05-09T09:22:37.709Z,16.03
2023-05-09T09:27:43.013Z,15.88
2023-05-09T09:32:47.349Z,15.57
2023-05-09T09:38:00.125Z,15.26
2023-05-09T09:43:10.588Z,15.08
2023-05-09T09:48:14.070Z,14.94
2023-05-09T09:53:21.436Z,14.64
2023-05-09T09:58:28.112Z,14.57
2023-05-09T10:03:40.202Z,14.55
2023-05-09T10:08:50.070Z,14.50
2023-05-09T10:13:54.296Z,14.30
2023-05-09T10:18:58.331Z,14.17
2023-05-09T10:24:04.451Z,14.02
2023-05-09T10:29:13.895Z,13.70
2023-05-09T10:34:19.017Z,13.42
2023-05-09T10:39:24.361Z,13.20
2023-05-09T10:44:28.313Z,12.90
2023-05-09T10:49:34.933Z,12.70
2023-05-09T10:54:40.906Z,12.51
2023-05-09T10:59:45.929Z,12.52
2023-05-09T11:04:50.116Z,12.59
2023-05-09T11:10:07.209Z,12.59
2023-05-09T11:15:12.028Z,12.62
2023-05-09T11:20:16.646Z,12.71
2023-05-09T11:25:29.980Z,12.76
2023-05-09T11:30:43.452Z,12.70
2023-05-09T11:35:47.887Z,12.51
2023-05-09T11:40:52.980Z,12.28
2023-05-09T11:45:58.268Z,11.51
2023-05-09T11:51:04.392Z,11.75
2023-05-09T11:56:08.472Z,11.45
2023-05-09T12:01:13.567Z,11.68
2023-05-09T12:06:18.847Z,11.69
2023-05-09T12:11:24.736Z,11.67
2023-05-09T12:16:28.676Z,11.61
2023-05-09T12:21:32.612Z,11.63
2023-05-09T12:26:36.927Z,11.67
2023-05-09T12:31:43.051Z,11.73
2023-05-09T12:36:52.419Z,11.76
2023-05-09T12:42:33.397Z,12.07
2023-05-09T12:47:42.900Z,12.90
2023-05-09T12:53:02.887Z,13.05
2023-05-09T12:58:07.894Z,13.10
2023-05-09T13:03:38.708Z,12.86
2023-05-09T13:08:42.880Z,12.49
2023-05-09T13:13:46.812Z,12.21
2023-05-09T13:18:50.965Z,11.85
2023-05-09T13:23:55.008Z,11.64
2023-05-09T13:28:59.396Z,11.45
2023-05-09T13:34:03.484Z,10.80
2023-05-09T13:39:07.348Z,11.09
2023-05-09T13:44:11.269Z,10.90
2023-05-09T13:49:15.256Z,10.31
2023-05-09T13:54:21.018Z,10.52
2023-05-09T13:59:25.036Z,10.37
2023-05-09T14:04:30.617Z,10.23
2023-05-09T14:09:40.809Z,9.66
2023-05-09T14:14:44.661Z,9.86
2023-05-09T14:19:48.826Z,9.57
2023-05-09T14:24:53.651Z,8.98
2023-05-09T14:29:58.047Z,8.91
2023-05-09T14:35:02.289Z,8.65
2023-05-09T14:40:08.122Z,8.46
2023-05-09T14:45:14.222Z,8.13
2023-05-09T14:50:18.269Z,7.93
2023-05-09T14:55:23.991Z,7.64
2023-05-09T15:00:29.230Z,7.54
2023-05-09T15:05:33.608Z,7.24
2023-05-09T15:10:37.557Z,6.91
2023-05-09T15:15:42.532Z,6.94
2023-05-09T15:20:46.547Z,7.24
2023-05-09T15:25:50.673Z,7.50
2023-05-09T15:30:55.045Z,7.60
2023-05-09T15:36:04.152Z,7.55
2023-05-09T15:41:09.976Z,7.65
2023-05-09T15:46:15.912Z,7.78
2023-05-09T15:51:20.045Z,8.05
2023-05-09T15:56:24.317Z,8.12
2023-05-09T16:01:28.344Z,8.00
2023-05-09T16:06:34.378Z,7.94
2023-05-09T16:11:38.495Z,7.85
2023-05-09T16:16:43.504Z,7.79
2023-05-09T16:21:47.984Z,7.57
2023-05-09T16:26:52.029Z,7.56
2023-05-09T16:31:56.023Z,7.41
2023-05-09T16:37:00.145Z,7.26
2023-05-09T16:42:05.007Z,7.01
2023-05-09T16:47:08.958Z,6.85
2023-05-09T16:52:13.227Z,6.69
2023-05-09T16:57:17.766Z,6.40
2023-05-09T17:02:21.814Z,6.43
2023-05-09T17:07:25.772Z,6.30
2023-05-09T17:12:29.926Z,6.20
2023-05-09T17:17:34.388Z,6.13
2023-05-09T17:22:39.086Z,6.00
2023-05-09T17:27:43.406Z,5.90
2023-05-09T17:32:47.297Z,5.80
2023-05-09T17:37:51.826Z,5.72
2023-05-09T17:42:55.700Z,5.62
2023-05-09T17:48:00.799Z,5.55
2023-05-09T17:53:04.929Z,5.51
2023-05-09T17:58:09.214Z,5.39
2023-05-09T18:03:13.427Z,5.40
2023-05-09T18:08:17.960Z,5.35
2023-05-09T18:13:25.314Z,5.32
2023-05-09T18:18:31.878Z,5.32
2023-05-09T18:23:36.037Z,5.23
2023-05-09T18:28:40.527Z,5.19
2023-05-09T18:33:45.122Z,5.08
2023-05-09T18:38:48.944Z,4.93
2023-05-09T18:43:53.964Z,4.73
2023-05-09T18:48:57.984Z,4.74
2023-05-09T18:54:02.053Z,4.70
2023-05-09T18:59:07.517Z,4.69
2023-05-09T19:04:11.668Z,4.61
2023-05-09T19:09:15.655Z,4.60
2023-05-09T19:14:20.178Z,4.55
2023-05-09T19:19:24.135Z,4.50
2023-05-09T19:24:28.782Z,4.51
2023-05-09T19:29:32.790Z,4.46
2023-05-09T19:34:37.402Z,4.38
2023-05-09T19:39:41.349Z,4.29
2023-05-09T19:44:47.379Z,4.23
2023-05-09T19:49:51.491Z,4.28
2023-05-09T19:54:56.031Z,4.17
2023-05-09T19:59:59.889Z,4.05
2023-05-09T20:05:04.539Z,4.00
2023-05-09T20:10:09.703Z,3.87
2023-05-09T20:15:14.441Z,3.85
2023-05-09T20:20:19.097Z,3.82
2023-05-09T20:25:23.941Z,3.72
2023-05-09T20:30:28.028Z,3.61
2023-05-09T20:35:32.251Z,3.52
2023-05-09T20:40:36.750Z,3.39
2023-05-09T20:45:40.842Z,3.20
2023-05-09T20:50:44.924Z,3.26
2023-05-09T20:55:50.429Z,3.14
2023-05-09T21:00:55.032Z,2.83
2023-05-09T21:05:59.621Z,2.90
2023-05-09T21:11:03.740Z,2.83
2023-05-09T21:16:07.764Z,2.75
2023-05-09T21:21:12.118Z,2.67
2023-05-09T21:26:17.210Z,2.52
2023-05-09T21:31:21.516Z,2.49
2023-05-09T21:36:25.919Z,2.39
2023-05-09T21:41:29.733Z,2.28
2023-05-09T21:46:34.421Z,2.22
2023-05-09T21:51:38.572Z,2.22
2023-05-09T21:56:43.255Z,2.17
2023-05-09T22:01:47.289Z,2.07
2023-05-09T22:06:51.423Z,1.85
2023-05-09T22:11:55.437Z,1.89
2023-05-09T22:17:00.130Z,1.72
2023-05-09T22:22:04.307Z,1.58
2023-05-09T22:27:12.263Z,1.45
2023-05-09T22:32:16.236Z,1.41
2023-05-09T22:37:20.249Z,1.26
2023-05-09T22:42:24.263Z,1.24
2023-05-09T22:47:28.168Z,1.18
2023-05-09T22:52:32.363Z,1.19
2023-05-09T22:57:36.500Z,1.03
2023-05-09T23:02:40.666Z,1.55
2023-05-09T23:07:45.712Z,1.74
2023-05-09T23:12:49.595Z,1.90
2023-05-09T23:17:53.702Z,2.20
2023-05-09T23:22:57.843Z,2.42
2023-05-09T23:28:02.067Z,2.68
2023-05-09T23:33:06.115Z,2.90
2023-05-09T23:38:10.285Z,3.06
2023-05-09T23:43:14.630Z,3.32
2023-05-09T23:48:18.406Z,3.62
2023-05-09T23:53:22.705Z,3.84
2023-05-09T23:58:26.497Z,3.89
